Granby, Colorado
Current Conditions -  °F | °C
As of 9:10 PM on Tuesday 21 Oct 2014 (Local Time) from K0CO Reporting Station
Broken Clouds Broken Clouds  
Wind Chill: 21°   Ceiling: 10000
Heat Index: 30°   Visibility: 10mi
Dew Point: 27°   Wind: 12mph
Humidity: 86%   Direction: 280°W
Pressure: 30.33"   Gusts: NA
Location:  40.09°N, 105.94°W
Report Text: K0CO 220310Z AUTO 28010KT 10SM BKN100 M01/M03 A3033 RMK AO2 LTG DSNT SW THRU N
Loading
Personal Weather Stations






























Interactive Weather Map
Tropical Storm Tracking
New forecast layout! Learn more

10-Day Weather Forecast

Advertisements
Track Severe Weather on mobile